Time;durP1;ratioP1;P1;durP2;ratioP2;P2;SDS_P1;SDS_P2;PMS_P1;PMS_P2;Temp;Humidity;BMP_temperature;BMP_pressure;BME280_temperature;BME280_humidity;BME280_pressure;Samples;Min_cycle;Max_cycle;Signal;HPM_P1;HPM_P2
2023/03/02 00:01:39;;;;;;;;;;;;;;;-4.05;65.20;97944.33;108999;1250;99243;-79
2023/03/02 00:04:08;;;;;;;;;;;;;;;-4.07;65.34;97944.23;108937;1249;95599;-74
2023/03/02 00:06:36;;;;;;;;;;;;;;;-4.09;65.29;97945.83;108720;1251;95652;-74
2023/03/02 00:09:05;;;;;;;;;;;;;;;-4.16;65.11;97942.30;108966;1252;103626;-75
2023/03/02 00:11:35;;;;;;;;;;;;;;;-4.21;65.44;97946.66;109098;1250;100702;-73
2023/03/02 00:14:03;;;;;;;;;;;;;;;-4.22;65.42;97949.43;108947;1250;99707;-76
2023/03/02 00:16:31;;;;;;;;;;;;;;;-4.25;65.44;97945.88;108972;1249;95562;-74
2023/03/02 00:18:59;;;;;;;;;;;;;;;-4.24;65.48;97938.98;109081;1250;95636;-74
2023/03/02 00:21:26;;;;;;;;;;;;;;;-4.22;65.60;97939.71;109005;1249;103883;-76
2023/03/02 00:23:54;;;;;;;;;;;;;;;-4.22;65.51;97942.23;109029;1249;101285;-74
2023/03/02 00:26:22;;;;;;;;;;;;;;;-4.27;65.60;97937.59;108934;1253;100182;-73
2023/03/02 00:28:51;;;;;;;;;;;;;;;-4.27;65.64;97936.73;109001;1250;95550;-74
2023/03/02 00:31:19;;;;;;;;;;;;;;;-4.30;65.52;97934.10;108748;1251;95722;-74
2023/03/02 00:33:47;;;;;;;;;;;;;;;-4.35;65.62;97932.50;108751;1249;111919;-74
2023/03/02 00:36:19;;;;;;;;;;;;;;;-4.35;65.64;97931.48;109104;1250;101322;-73
2023/03/02 00:38:47;;;;;;;;;;;;;;;-4.35;65.78;97935.36;109018;1249;99854;-74
2023/03/02 00:41:16;;;;;;;;;;;;;;;-4.36;65.87;97937.20;109027;1249;95518;-74
2023/03/02 00:43:44;;;;;;;;;;;;;;;-4.41;65.89;97933.98;109063;1249;95563;-73
2023/03/02 00:46:16;;;;;;;;;;;;;;;-4.47;65.87;97930.23;109023;1249;102610;-74
2023/03/02 00:48:44;;;;;;;;;;;;;;;-4.50;65.93;97934.16;109023;1250;101197;-74
2023/03/02 00:51:13;;;;;;;;;;;;;;;-4.51;66.15;97932.99;108722;1251;100196;-74
2023/03/02 00:53:41;;;;;;;;;;;;;;;-4.52;66.06;97933.19;108977;1249;95506;-74
2023/03/02 00:56:10;;;;;;;;;;;;;;;-4.52;66.08;97932.14;108686;1251;95656;-75
2023/03/02 00:58:38;;;;;;;;;;;;;;;-4.54;66.14;97933.02;109011;1249;103674;-76
2023/03/02 01:01:07;;;;;;;;;;;;;;;-4.61;66.16;97931.20;109071;1250;101281;-74
2023/03/02 01:03:36;;;;;;;;;;;;;;;-4.68;66.05;97925.52;108972;1249;99823;-77
2023/03/02 01:06:04;;;;;;;;;;;;;;;-4.77;65.99;97919.48;109028;1249;95495;-78
2023/03/02 01:08:32;;;;;;;;;;;;;;;-4.83;66.20;97918.84;109024;1250;96417;-77
2023/03/02 01:11:01;;;;;;;;;;;;;;;-4.83;66.49;97919.70;109046;1250;103081;-74
2023/03/02 01:13:29;;;;;;;;;;;;;;;-4.81;66.56;97921.84;108766;1250;101201;-77
2023/03/02 01:16:04;;;;;;;;;;;;;;;-4.79;66.60;97929.44;108969;1250;99765;-76
2023/03/02 01:18:33;;;;;;;;;;;;;;;-4.81;66.61;97930.09;109001;1249;95538;-77
2023/03/02 01:21:02;;;;;;;;;;;;;;;-4.83;66.60;97925.98;108690;1251;96638;-72
2023/03/02 01:23:30;;;;;;;;;;;;;;;-4.83;66.50;97918.79;109008;1251;103960;-73
2023/03/02 01:25:58;;;;;;;;;;;;;;;-4.82;66.61;97910.50;108993;1253;101475;-76
2023/03/02 01:28:26;;;;;;;;;;;;;;;-4.82;66.74;97905.23;108678;1250;108446;-74
2023/03/02 01:30:54;;;;;;;;;;;;;;;-4.83;66.65;97905.66;108970;1249;95779;-74
2023/03/02 01:33:22;;;;;;;;;;;;;;;-4.85;66.77;97898.27;109012;1251;95566;-75
2023/03/02 01:35:50;;;;;;;;;;;;;;;-4.86;66.89;97892.17;109036;1250;103596;-74
2023/03/02 01:38:18;;;;;;;;;;;;;;;-4.85;66.86;97891.06;109022;1250;100995;-77
2023/03/02 01:40:46;;;;;;;;;;;;;;;-4.85;66.87;97889.14;108988;1249;100020;-74
2023/03/02 01:43:16;;;;;;;;;;;;;;;-4.85;66.86;97887.56;109024;1249;95569;-73
2023/03/02 01:45:52;;;;;;;;;;;;;;;-4.86;66.80;97886.00;109059;1249;95661;-75
2023/03/02 01:48:23;;;;;;;;;;;;;;;-4.91;66.92;97884.61;108957;1250;103687;-73
2023/03/02 01:50:52;;;;;;;;;;;;;;;-4.96;66.94;97881.77;109040;1251;101150;-74
2023/03/02 01:53:21;;;;;;;;;;;;;;;-4.94;67.18;97878.66;109006;1249;100123;-76
2023/03/02 01:55:49;;;;;;;;;;;;;;;-4.92;67.18;97873.93;109015;1250;95829;-77
2023/03/02 01:58:17;;;;;;;;;;;;;;;-4.90;67.13;97873.48;108641;1259;95870;-74
2023/03/02 02:00:45;;;;;;;;;;;;;;;-4.91;67.17;97873.00;108959;1250;102654;-74
2023/03/02 02:03:21;;;;;;;;;;;;;;;-4.97;67.05;97873.09;109032;1250;101246;-76
2023/03/02 02:06:10;;;;;;;;;;;;;;;-5.03;67.02;97868.23;108997;1249;99899;-73
2023/03/02 02:08:38;;;;;;;;;;;;;;;-5.04;67.12;97868.12;108129;1260;95649;-74
2023/03/02 02:11:06;;;;;;;;;;;;;;;-5.05;67.17;97870.27;108306;1258;95670;-74
2023/03/02 02:13:34;;;;;;;;;;;;;;;-5.06;67.23;97870.34;108326;1259;103246;-76
2023/03/02 02:16:02;;;;;;;;;;;;;;;-5.07;67.18;97869.53;108175;1259;101567;-73
2023/03/02 02:18:30;;;;;;;;;;;;;;;-5.10;67.08;97862.42;108263;1258;99827;-74
2023/03/02 02:20:59;;;;;;;;;;;;;;;-5.12;67.12;97865.52;108283;1260;97204;-76
2023/03/02 02:23:37;;;;;;;;;;;;;;;-5.13;67.27;97863.09;108352;1257;97031;-74
2023/03/02 02:26:11;;;;;;;;;;;;;;;-5.13;67.37;97858.75;108143;1258;104671;-76
2023/03/02 02:28:47;;;;;;;;;;;;;;;-5.14;67.41;97857.91;108309;1258;100232;-77
2023/03/02 02:31:14;;;;;;;;;;;;;;;-5.13;67.38;97855.59;108199;1259;99539;-73
2023/03/02 02:33:45;;;;;;;;;;;;;;;-5.12;67.39;97855.70;108287;1259;96956;-78
2023/03/02 02:36:18;;;;;;;;;;;;;;;-5.13;67.41;97849.76;108319;1259;97040;-78
2023/03/02 02:38:48;;;;;;;;;;;;;;;-5.11;67.32;97844.39;108274;1259;105025;-74
2023/03/02 02:41:21;;;;;;;;;;;;;;;-5.11;67.41;97846.31;108326;1258;101481;-75
2023/03/02 02:43:50;;;;;;;;;;;;;;;-5.14;67.48;97847.40;108256;1259;99983;-79
2023/03/02 02:46:18;;;;;;;;;;;;;;;-5.17;67.61;97847.74;108651;1251;96970;-74
2023/03/02 02:48:46;;;;;;;;;;;;;;;-5.19;67.74;97842.61;108886;1251;96972;-78
2023/03/02 02:51:18;;;;;;;;;;;;;;;-5.20;67.61;97842.39;108949;1251;104957;-74
2023/03/02 02:53:57;;;;;;;;;;;;;;;-5.21;67.61;97843.14;108897;1251;101302;-74
2023/03/02 02:56:36;;;;;;;;;;;;;;;-5.21;67.55;97845.40;108831;1251;108505;-75
2023/03/02 02:59:06;;;;;;;;;;;;;;;-5.22;67.50;97842.15;108849;1251;96919;-74
2023/03/02 03:01:34;;;;;;;;;;;;;;;-5.26;67.54;97839.98;108910;1251;96924;-74
2023/03/02 03:04:04;;;;;;;;;;;;;;;-5.29;67.56;97842.99;108874;1251;113401;-72
2023/03/02 03:06:37;;;;;;;;;;;;;;;-5.32;67.62;97837.74;108894;1251;101416;-74
2023/03/02 03:09:11;;;;;;;;;;;;;;;-5.32;67.82;97838.30;108865;1251;100447;-73
2023/03/02 03:11:41;;;;;;;;;;;;;;;-5.33;67.57;97833.83;108842;1251;97018;-76
2023/03/02 03:14:11;;;;;;;;;;;;;;;-5.36;67.60;97831.37;108926;1251;97044;-74
2023/03/02 03:16:40;;;;;;;;;;;;;;;-5.38;67.62;97832.52;108897;1251;104502;-77
2023/03/02 03:19:25;;;;;;;;;;;;;;;-5.39;67.72;97834.91;108617;1250;100421;-74
2023/03/02 03:21:54;;;;;;;;;;;;;;;-5.41;67.73;97836.94;108931;1249;99991;-74
2023/03/02 03:24:23;;;;;;;;;;;;;;;-5.42;67.74;97829.11;109013;1251;97625;-74
2023/03/02 03:26:53;;;;;;;;;;;;;;;-5.43;67.67;97827.10;108960;1250;97378;-78
2023/03/02 03:29:23;;;;;;;;;;;;;;;-5.52;67.35;97827.46;109031;1251;105062;-74
2023/03/02 03:31:51;;;;;;;;;;;;;;;-5.60;67.33;97828.59;109059;1250;101076;-74
2023/03/02 03:34:20;;;;;;;;;;;;;;;-5.64;67.55;97828.82;108875;1251;108560;-77
2023/03/02 03:36:48;;;;;;;;;;;;;;;-5.64;67.78;97827.79;108988;1253;96956;-75
2023/03/02 03:39:17;;;;;;;;;;;;;;;-5.65;67.79;97828.16;109077;1250;96990;-74
2023/03/02 03:41:45;;;;;;;;;;;;;;;-5.67;67.95;97829.91;109035;1249;104788;-74
2023/03/02 03:44:13;;;;;;;;;;;;;;;-5.68;67.93;97832.77;108984;1249;109734;-74
2023/03/02 03:46:41;;;;;;;;;;;;;;;-5.66;68.06;97830.52;108973;1250;99960;-74
2023/03/02 03:49:09;;;;;;;;;;;;;;;-5.65;68.09;97828.33;108952;1250;96854;-74
2023/03/02 03:51:37;;;;;;;;;;;;;;;-5.65;68.00;97824.14;108987;1250;96980;-74
2023/03/02 03:54:07;;;;;;;;;;;;;;;-5.65;68.06;97823.65;109037;1250;113492;-75
2023/03/02 03:56:36;;;;;;;;;;;;;;;-5.67;68.05;97820.10;108692;1250;101091;-76
2023/03/02 03:59:08;;;;;;;;;;;;;;;-5.66;68.30;97816.33;109026;1250;99958;-74
2023/03/02 04:01:37;;;;;;;;;;;;;;;-5.65;68.20;97813.42;108701;1249;96934;-74
2023/03/02 04:04:07;;;;;;;;;;;;;;;-5.64;68.22;97808.65;109005;1250;97717;-75
2023/03/02 04:06:35;;;;;;;;;;;;;;;-5.65;68.22;97807.81;108994;1250;112499;-74
2023/03/02 04:09:04;;;;;;;;;;;;;;;-5.69;68.07;97804.42;109032;1249;101982;-77
2023/03/02 04:11:33;;;;;;;;;;;;;;;-5.73;68.26;97805.05;108944;1251;108188;-74
2023/03/02 04:14:01;;;;;;;;;;;;;;;-5.73;68.34;97805.40;108680;1251;97214;-74
2023/03/02 04:16:29;;;;;;;;;;;;;;;-5.72;68.35;97803.27;109008;1249;96996;-74
2023/03/02 04:18:58;;;;;;;;;;;;;;;-5.72;68.42;97803.23;109028;1250;113424;-75
2023/03/02 04:21:26;;;;;;;;;;;;;;;-5.73;68.16;97805.02;108750;1250;108646;-74
2023/03/02 04:23:54;;;;;;;;;;;;;;;-5.78;68.11;97802.22;109033;1249;100142;-74
2023/03/02 04:26:22;;;;;;;;;;;;;;;-5.80;68.31;97801.64;108982;1251;96947;-74
2023/03/02 04:28:50;;;;;;;;;;;;;;;-5.78;68.30;97800.48;109021;1249;96913;-75
2023/03/02 04:31:18;;;;;;;;;;;;;;;-5.76;68.30;97799.48;109003;1250;113512;-78
2023/03/02 04:33:46;;;;;;;;;;;;;;;-5.76;68.28;97796.34;108994;1251;110166;-75
2023/03/02 04:36:14;;;;;;;;;;;;;;;-5.80;68.32;97795.04;109010;1250;108682;-74
2023/03/02 04:38:42;;;;;;;;;;;;;;;-5.83;68.24;97793.28;108958;1249;96835;-74
2023/03/02 04:41:10;;;;;;;;;;;;;;;-5.86;68.23;97791.03;109016;1250;96989;-74
2023/03/02 04:43:38;;;;;;;;;;;;;;;-5.86;68.43;97784.33;109063;1250;112636;-74
2023/03/02 04:46:06;;;;;;;;;;;;;;;-5.85;68.52;97786.23;109010;1251;110366;-74
2023/03/02 04:48:34;;;;;;;;;;;;;;;-5.85;68.58;97785.69;108956;1251;100107;-74
2023/03/02 04:51:04;;;;;;;;;;;;;;;-5.84;68.58;97781.92;108644;1251;97041;-74
2023/03/02 04:53:32;;;;;;;;;;;;;;;-5.86;68.55;97783.47;108966;1250;96980;-77
2023/03/02 04:56:00;;;;;;;;;;;;;;;-5.87;68.55;97784.44;109028;1250;104881;-74
2023/03/02 04:58:28;;;;;;;;;;;;;;;-5.88;68.67;97786.41;109013;1250;109860;-77
2023/03/02 05:01:00;;;;;;;;;;;;;;;-5.88;68.66;97789.09;109001;1251;108165;-74
2023/03/02 05:03:29;;;;;;;;;;;;;;;-5.87;68.70;97791.95;108983;1251;96872;-74
2023/03/02 05:05:57;;;;;;;;;;;;;;;-5.87;68.75;97794.75;109035;1251;97106;-74
2023/03/02 05:08:25;;;;;;;;;;;;;;;-5.88;68.65;97797.48;109081;1249;113463;-75
2023/03/02 05:10:53;;;;;;;;;;;;;;;-5.88;68.58;97798.56;109040;1249;110141;-77
2023/03/02 05:13:21;;;;;;;;;;;;;;;-5.88;68.50;97801.67;109016;1250;99957;-75
2023/03/02 05:15:50;;;;;;;;;;;;;;;-5.90;68.37;97805.33;108953;1253;96887;-74
2023/03/02 05:18:19;;;;;;;;;;;;;;;-5.92;68.46;97808.79;109026;1249;97010;-78
2023/03/02 05:20:47;;;;;;;;;;;;;;;-5.92;68.57;97805.96;108651;1251;104846;-74
2023/03/02 05:23:22;;;;;;;;;;;;;;;-5.94;68.35;97804.77;109003;1251;99999;-75
2023/03/02 05:25:54;;;;;;;;;;;;;;;-6.00;68.17;97807.05;109040;1250;99573;-74
2023/03/02 05:28:23;;;;;;;;;;;;;;;-6.05;68.36;97815.78;109001;1249;96853;-74
2023/03/02 05:30:52;;;;;;;;;;;;;;;-6.07;68.56;97820.65;109005;1250;96993;-74
2023/03/02 05:33:20;;;;;;;;;;;;;;;-6.04;68.70;97819.77;109001;1251;105067;-74
2023/03/02 05:35:48;;;;;;;;;;;;;;;-6.01;68.76;97822.87;109045;1250;101338;-74
2023/03/02 05:38:16;;;;;;;;;;;;;;;-6.00;68.77;97821.38;108988;1251;108511;-74
2023/03/02 05:40:44;;;;;;;;;;;;;;;-6.01;68.68;97822.19;109022;1253;96950;-73
2023/03/02 05:43:15;;;;;;;;;;;;;;;-6.07;68.63;97819.47;109024;1249;96888;-77
2023/03/02 05:45:43;;;;;;;;;;;;;;;-6.10;68.86;97819.30;109019;1251;105013;-79
2023/03/02 05:48:12;;;;;;;;;;;;;;;-6.09;68.82;97820.80;108721;1251;100182;-74
2023/03/02 05:50:40;;;;;;;;;;;;;;;-6.05;68.98;97815.80;109006;1251;108539;-74
2023/03/02 05:53:09;;;;;;;;;;;;;;;-6.03;69.09;97814.63;109004;1250;96947;-74
2023/03/02 05:55:36;;;;;;;;;;;;;;;-6.04;69.10;97812.93;108989;1250;97769;-73
2023/03/02 05:58:10;;;;;;;;;;;;;;;-6.03;69.11;97815.48;109080;1251;104771;-74
2023/03/02 06:00:38;;;;;;;;;;;;;;;-5.98;69.25;97815.85;109032;1250;100453;-73
2023/03/02 06:03:06;;;;;;;;;;;;;;;-5.91;69.32;97820.47;109024;1250;108419;-78
2023/03/02 06:05:34;;;;;;;;;;;;;;;-5.86;69.28;97822.95;108976;1250;96952;-77
2023/03/02 06:08:03;;;;;;;;;;;;;;;-5.82;69.41;97829.11;108732;1251;97976;-75
2023/03/02 06:10:31;;;;;;;;;;;;;;;-5.77;69.42;97831.61;109007;1253;113909;-74
2023/03/02 06:12:59;;;;;;;;;;;;;;;-5.74;69.40;97834.95;109035;1251;110106;-74
2023/03/02 06:15:29;;;;;;;;;;;;;;;-5.72;69.33;97838.63;108997;1251;99904;-76
2023/03/02 06:17:57;;;;;;;;;;;;;;;-5.67;69.54;97838.48;108992;1251;98044;-77
2023/03/02 06:20:25;;;;;;;;;;;;;;;-5.62;69.50;97836.57;109049;1250;96910;-78
2023/03/02 06:22:53;;;;;;;;;;;;;;;-5.54;69.43;97838.86;109024;1251;105180;-75
2023/03/02 06:25:23;;;;;;;;;;;;;;;-5.45;69.31;97839.16;109022;1251;101311;-74
2023/03/02 06:27:52;;;;;;;;;;;;;;;-5.36;69.28;97837.70;108970;1251;99510;-74
2023/03/02 06:30:22;;;;;;;;;;;;;;;-5.30;69.13;97833.90;108680;1251;96983;-74
2023/03/02 06:32:50;;;;;;;;;;;;;;;-5.27;69.25;97831.98;108971;1250;96967;-74
2023/03/02 06:35:18;;;;;;;;;;;;;;;-5.26;69.44;97828.55;109062;1251;104927;-74
2023/03/02 06:37:46;;;;;;;;;;;;;;;-5.22;69.56;97835.69;108679;1251;101392;-74
2023/03/02 06:40:14;;;;;;;;;;;;;;;-5.17;69.43;97836.02;108995;1251;108676;-74
2023/03/02 06:42:42;;;;;;;;;;;;;;;-5.12;69.42;97833.95;108969;1251;97310;-74
2023/03/02 06:45:11;;;;;;;;;;;;;;;-5.06;69.43;97836.52;109096;1251;97017;-74
2023/03/02 06:47:41;;;;;;;;;;;;;;;-5.01;69.51;97835.45;109051;1251;104557;-75
2023/03/02 06:50:10;;;;;;;;;;;;;;;-4.95;69.35;97830.67;108664;1251;101256;-74
2023/03/02 06:52:38;;;;;;;;;;;;;;;-4.89;69.17;97827.78;108969;1250;100149;-75
2023/03/02 06:55:06;;;;;;;;;;;;;;;-4.81;69.23;97831.92;108973;1253;97202;-73
2023/03/02 06:57:34;;;;;;;;;;;;;;;-4.73;69.13;97832.96;109029;1250;96974;-78
2023/03/02 07:00:06;;;;;;;;;;;;;;;-4.68;69.04;97830.00;108988;1251;113473;-74
2023/03/02 07:02:34;;;;;;;;;;;;;;;-4.63;69.03;97827.70;108690;1250;101453;-76
2023/03/02 07:05:02;;;;;;;;;;;;;;;-4.54;68.99;97831.44;108998;1251;98682;-74
2023/03/02 07:07:30;;;;;;;;;;;;;;;-4.46;69.18;97831.11;108977;1249;97322;-78
2023/03/02 07:09:58;;;;;;;;;;;;;;;-4.42;69.13;97828.66;109012;1250;96994;-77
2023/03/02 07:12:26;;;;;;;;;;;;;;;-4.36;69.31;97831.27;108600;1251;104470;-74
2023/03/02 07:14:54;;;;;;;;;;;;;;;-4.28;69.47;97830.36;108617;1251;101555;-74
2023/03/02 07:17:22;;;;;;;;;;;;;;;-4.20;69.50;97827.27;108851;1251;100150;-74
2023/03/02 07:19:50;;;;;;;;;;;;;;;-4.11;69.40;97826.09;108976;1251;97286;-74
2023/03/02 07:22:18;;;;;;;;;;;;;;;-4.01;69.41;97822.05;109022;1251;97081;-78
2023/03/02 07:24:46;;;;;;;;;;;;;;;-3.93;69.22;97818.64;109006;1251;105178;-77
2023/03/02 07:27:14;;;;;;;;;;;;;;;-3.83;69.00;97813.52;109043;1251;101400;-76
2023/03/02 07:29:42;;;;;;;;;;;;;;;-3.71;68.99;97810.65;108975;1249;98519;-74
2023/03/02 07:32:10;;;;;;;;;;;;;;;-3.55;68.99;97810.67;108923;1250;96888;-74
2023/03/02 07:34:38;;;;;;;;;;;;;;;-3.39;68.95;97809.31;108982;1251;97071;-73
2023/03/02 07:37:07;;;;;;;;;;;;;;;-3.23;68.75;97810.05;108995;1251;104767;-73
2023/03/02 07:39:35;;;;;;;;;;;;;;;-3.07;68.50;97807.96;108967;1253;101903;-74
2023/03/02 07:42:05;;;;;;;;;;;;;;;-2.88;68.57;97805.08;108999;1251;98530;-74
2023/03/02 07:44:33;;;;;;;;;;;;;;;-2.70;68.23;97804.16;108963;1250;96879;-74
2023/03/02 07:47:01;;;;;;;;;;;;;;;-2.51;67.95;97801.62;109048;1250;96937;-76
2023/03/02 07:49:29;;;;;;;;;;;;;;;-2.31;67.61;97802.50;109057;1251;104496;-75
2023/03/02 07:51:57;;;;;;;;;;;;;;;-2.10;67.40;97799.38;109022;1251;100278;-73
2023/03/02 07:54:29;;;;;;;;;;;;;;;-1.89;67.08;97796.06;109013;1250;100142;-74
2023/03/02 07:56:57;;;;;;;;;;;;;;;-1.66;66.84;97793.04;108760;1252;235811;-75
2023/03/02 07:59:27;;;;;;;;;;;;;;;-1.44;66.68;97790.95;109033;1249;97165;-73
2023/03/02 08:01:55;;;;;;;;;;;;;;;-1.19;66.37;97793.46;109020;1250;104898;-74
2023/03/02 08:04:24;;;;;;;;;;;;;;;-0.94;65.97;97788.85;109035;1251;101016;-74
2023/03/02 08:06:52;;;;;;;;;;;;;;;-0.67;65.71;97790.55;108940;1251;99869;-77
2023/03/02 08:09:20;;;;;;;;;;;;;;;-0.35;65.28;97788.35;109008;1250;96871;-73
2023/03/02 08:11:48;;;;;;;;;;;;;;;-0.01;64.94;97787.09;108567;1250;97148;-73
2023/03/02 08:14:16;;;;;;;;;;;;;;;0.36;64.43;97780.72;108806;1250;104805;-74
2023/03/02 08:16:44;;;;;;;;;;;;;;;0.75;64.07;97783.21;108684;1251;101771;-73
2023/03/02 08:19:12;;;;;;;;;;;;;;;1.12;63.47;97782.67;108809;1251;99946;-76
2023/03/02 08:21:40;;;;;;;;;;;;;;;1.45;62.92;97774.58;108843;1251;96854;-75
2023/03/02 08:24:09;;;;;;;;;;;;;;;1.79;62.37;97766.52;109036;1250;96900;-73
2023/03/02 08:26:37;;;;;;;;;;;;;;;2.16;61.52;97765.07;108746;1250;104448;-75
2023/03/02 08:29:06;;;;;;;;;;;;;;;2.42;61.09;97762.14;108691;1251;101513;-75
2023/03/02 08:31:34;;;;;;;;;;;;;;;2.75;60.82;97763.98;108981;1251;100068;-73
2023/03/02 08:34:02;;;;;;;;;;;;;;;3.01;59.95;97762.42;108954;1251;97187;-74
2023/03/02 08:36:30;;;;;;;;;;;;;;;3.19;59.17;97761.48;109001;1251;96994;-74
2023/03/02 08:38:58;;;;;;;;;;;;;;;3.44;59.24;97762.06;109004;1251;105089;-77
2023/03/02 08:41:26;;;;;;;;;;;;;;;3.74;59.05;97762.29;109062;1251;101326;-76
2023/03/02 08:43:55;;;;;;;;;;;;;;;4.02;58.13;97761.00;108981;1251;99921;-76
2023/03/02 08:46:23;;;;;;;;;;;;;;;4.14;57.49;97758.50;109030;1251;96923;-74
2023/03/02 08:48:51;;;;;;;;;;;;;;;4.22;57.10;97754.52;109074;1251;97031;-75
2023/03/02 08:51:21;;;;;;;;;;;;;;;4.33;56.87;97751.01;109038;1251;104482;-74
2023/03/02 08:53:50;;;;;;;;;;;;;;;4.44;56.16;97748.75;108689;1250;101422;-73
2023/03/02 08:56:23;;;;;;;;;;;;;;;4.62;56.17;97752.38;109003;1251;100187;-74
2023/03/02 08:58:52;;;;;;;;;;;;;;;4.86;56.04;97750.13;109032;1251;96895;-74
2023/03/02 09:01:22;;;;;;;;;;;;;;;5.14;55.68;97745.10;109015;1251;96958;-76
2023/03/02 09:03:50;;;;;;;;;;;;;;;5.33;55.10;97738.61;109091;1251;104757;-74
2023/03/02 09:06:19;;;;;;;;;;;;;;;5.54;54.94;97736.63;109052;1251;101339;-74
2023/03/02 09:08:47;;;;;;;;;;;;;;;5.82;54.60;97726.33;109050;1251;99864;-74
2023/03/02 09:11:15;;;;;;;;;;;;;;;6.08;54.17;97724.21;109013;1251;96955;-75
2023/03/02 09:13:43;;;;;;;;;;;;;;;6.31;53.93;97725.90;109089;1251;96973;-74
2023/03/02 09:16:12;;;;;;;;;;;;;;;6.62;53.07;97724.92;109059;1251;104911;-74
2023/03/02 09:18:40;;;;;;;;;;;;;;;6.80;52.44;97720.66;109053;1251;101366;-74
2023/03/02 09:21:08;;;;;;;;;;;;;;;7.03;52.58;97717.45;108959;1250;99855;-73
2023/03/02 09:23:36;;;;;;;;;;;;;;;7.35;52.24;97715.23;109002;1249;96879;-74
2023/03/02 09:26:05;;;;;;;;;;;;;;;7.63;51.87;97710.70;109078;1250;96913;-73
2023/03/02 09:28:33;;;;;;;;;;;;;;;7.97;51.36;97707.96;109085;1249;104883;-73
2023/03/02 09:31:01;;;;;;;;;;;;;;;8.26;50.39;97700.09;109020;1250;109812;-76
2023/03/02 09:33:30;;;;;;;;;;;;;;;8.54;50.33;97699.13;108987;1250;99985;-74
2023/03/02 09:35:58;;;;;;;;;;;;;;;8.81;49.44;97699.48;108728;1251;96966;-74
2023/03/02 09:38:26;;;;;;;;;;;;;;;8.92;48.67;97694.37;109035;1250;96946;-75
2023/03/02 09:41:03;;;;;;;;;;;;;;;9.03;48.81;97690.60;109079;1250;104421;-73
2023/03/02 09:43:31;;;;;;;;;;;;;;;9.21;48.34;97687.84;109014;1251;101237;-74
2023/03/02 09:45:59;;;;;;;;;;;;;;;9.44;48.26;97689.09;108926;1249;100098;-74
2023/03/02 09:48:46;;;;;;;;;;;;;;;9.66;47.52;97689.39;109073;1251;97200;-73
2023/03/02 09:51:14;;;;;;;;;;;;;;;9.67;46.86;97683.91;108940;1251;97751;-75
2023/03/02 09:53:56;;;;;;;;;;;;;;;9.85;47.30;97677.83;109011;1251;104383;-73
2023/03/02 09:56:24;;;;;;;;;;;;;;;10.19;47.11;97672.05;108987;1250;101295;-74
2023/03/02 09:58:59;;;;;;;;;;;;;;;10.50;46.49;97673.77;109008;1249;99971;-74
2023/03/02 10:01:41;;;;;;;;;;;;;;;10.68;46.07;97670.70;108865;1250;97073;-73
2023/03/02 10:04:14;;;;;;;;;;;;;;;10.82;45.65;97666.36;109062;1250;96961;-75
2023/03/02 10:06:42;;;;;;;;;;;;;;;10.85;45.53;97662.99;109041;1249;104597;-74
2023/03/02 10:09:10;;;;;;;;;;;;;;;11.00;45.05;97656.68;108955;1251;101482;-76
2023/03/02 10:11:44;;;;;;;;;;;;;;;11.24;45.05;97652.17;108990;1250;99034;-73
2023/03/02 10:14:15;;;;;;;;;;;;;;;11.58;45.08;97647.25;109022;1251;96943;-74
2023/03/02 10:16:44;;;;;;;;;;;;;;;11.96;44.75;97648.08;109022;1250;97035;-74
2023/03/02 10:19:31;;;;;;;;;;;;;;;12.23;44.31;97642.41;109053;1250;104958;-76
2023/03/02 10:22:22;;;;;;;;;;;;;;;12.48;43.83;97641.90;108995;1251;100887;-75
2023/03/02 10:25:10;;;;;;;;;;;;;;;12.64;43.12;97639.48;108890;1250;99746;-75
2023/03/02 10:27:39;;;;;;;;;;;;;;;12.74;42.98;97636.02;108263;1260;97440;-76
2023/03/02 10:30:26;;;;;;;;;;;;;;;12.97;42.93;97631.31;108280;1259;97471;-74
2023/03/02 10:32:56;;;;;;;;;;;;;;;13.22;42.35;97626.52;108313;1260;104918;-74
2023/03/02 10:35:27;;;;;;;;;;;;;;;13.37;42.00;97626.06;108301;1260;101107;-74
2023/03/02 10:37:58;;;;;;;;;;;;;;;13.40;41.37;97620.86;108259;1259;99133;-76
2023/03/02 10:40:38;;;;;;;;;;;;;;;13.37;41.26;97611.52;108198;1259;97045;-75
2023/03/02 10:43:07;;;;;;;;;;;;;;;13.47;41.54;97607.40;108266;1258;97049;-74
2023/03/02 10:45:36;;;;;;;;;;;;;;;13.71;41.22;97604.38;108289;1260;104816;-76
2023/03/02 10:48:09;;;;;;;;;;;;;;;13.85;40.71;97603.66;108322;1258;101310;-76
2023/03/02 10:50:37;;;;;;;;;;;;;;;13.94;40.49;97603.14;108292;1259;100290;-74
2023/03/02 10:53:08;;;;;;;;;;;;;;;14.15;40.63;97600.75;108283;1259;97258;-75
2023/03/02 10:55:44;;;;;;;;;;;;;;;14.42;40.41;97600.09;108196;1260;97055;-76
2023/03/02 10:58:31;;;;;;;;;;;;;;;14.68;39.83;97592.77;108289;1260;104823;-77
2023/03/02 11:01:07;;;;;;;;;;;;;;;14.90;39.19;97587.83;108334;1259;100941;-74
2023/03/02 11:03:35;;;;;;;;;;;;;;;15.01;38.99;97583.84;108275;1260;99911;-74
2023/03/02 11:06:18;;;;;;;;;;;;;;;15.22;39.00;97579.83;108875;1249;96880;-76
2023/03/02 11:08:46;;;;;;;;;;;;;;;15.48;38.75;97575.33;109014;1250;96961;-75
2023/03/02 11:11:24;;;;;;;;;;;;;;;15.67;38.34;97571.35;109027;1250;104640;-73
2023/03/02 11:13:53;;;;;;;;;;;;;;;15.77;37.68;97566.55;108670;1251;101333;-73
2023/03/02 11:16:24;;;;;;;;;;;;;;;15.73;37.61;97566.03;108949;1249;99897;-76
2023/03/02 11:19:03;;;;;;;;;;;;;;;15.72;37.64;97562.91;109002;1250;96954;-74
2023/03/02 11:21:38;;;;;;;;;;;;;;;15.66;37.63;97557.23;108996;1250;96963;-74
2023/03/02 11:24:06;;;;;;;;;;;;;;;15.83;37.21;97550.51;109024;1250;104872;-73
2023/03/02 11:26:36;;;;;;;;;;;;;;;16.12;37.00;97552.67;109034;1251;100380;-77
2023/03/02 11:29:22;;;;;;;;;;;;;;;16.45;36.76;97552.69;109016;1249;99946;-76
2023/03/02 11:31:52;;;;;;;;;;;;;;;16.74;36.44;97546.50;108660;1254;97069;-76
2023/03/02 11:34:26;;;;;;;;;;;;;;;16.80;35.86;97543.30;108850;1250;97102;-76
2023/03/02 11:37:03;;;;;;;;;;;;;;;16.93;35.79;97541.38;108928;1251;104889;-77
2023/03/02 11:39:55;;;;;;;;;;;;;;;16.97;35.57;97533.73;108701;1249;109714;-77
2023/03/02 11:42:29;;;;;;;;;;;;;;;17.07;35.53;97527.58;108318;1257;98943;-78
2023/03/02 11:45:00;;;;;;;;;;;;;;;17.27;34.69;97526.01;108306;1257;96977;-76
2023/03/02 11:47:31;;;;;;;;;;;;;;;17.14;34.23;97518.96;108368;1257;97118;-75
2023/03/02 11:50:05;;;;;;;;;;;;;;;17.01;34.03;97519.47;108328;1257;104908;-75
2023/03/02 11:52:36;;;;;;;;;;;;;;;16.99;34.55;97522.92;108356;1256;101404;-75
2023/03/02 11:55:13;;;;;;;;;;;;;;;17.19;34.17;97515.70;108342;1257;99953;-75
2023/03/02 11:57:47;;;;;;;;;;;;;;;17.47;34.09;97508.40;108369;1257;97061;-74
2023/03/02 12:00:24;;;;;;;;;;;;;;;17.69;33.63;97503.69;108417;1257;97031;-75
2023/03/02 12:03:18;;;;;;;;;;;;;;;17.91;33.58;97503.63;108338;1256;104513;-74
2023/03/02 12:05:58;;;;;;;;;;;;;;;18.14;33.77;97498.69;107982;1263;108514;-75
2023/03/02 12:08:47;;;;;;;;;;;;;;;18.27;33.28;97497.84;107997;1263;100148;-74
2023/03/02 12:11:17;;;;;;;;;;;;;;;18.24;33.13;97492.13;107963;1263;97173;-74
2023/03/02 12:13:58;;;;;;;;;;;;;;;18.20;33.20;97488.42;108019;1263;96993;-74
2023/03/02 12:16:37;;;;;;;;;;;;;;;18.22;33.42;97482.10;107980;1263;104766;-73
2023/03/02 12:19:17;;;;;;;;;;;;;;;18.23;33.51;97480.85;108082;1259;101391;-74
2023/03/02 12:21:58;;;;;;;;;;;;;;;18.15;33.09;97478.48;108186;1260;100378;-74
2023/03/02 12:24:30;;;;;;;;;;;;;;;18.00;33.03;97477.40;108174;1259;97367;-75
2023/03/02 12:27:06;;;;;;;;;;;;;;;17.99;33.06;97480.17;108157;1259;97178;-74
2023/03/02 12:29:41;;;;;;;;;;;;;;;18.03;32.73;97475.67;108141;1260;113339;-73
2023/03/02 12:32:12;;;;;;;;;;;;;;;17.99;32.50;97474.55;108249;1258;108799;-74
2023/03/02 12:34:45;;;;;;;;;;;;;;;18.01;33.00;97471.73;108087;1259;99208;-75
2023/03/02 12:37:20;;;;;;;;;;;;;;;17.77;32.48;97471.62;108197;1259;96958;-74
2023/03/02 12:40:03;;;;;;;;;;;;;;;17.71;32.50;97468.29;108204;1259;97040;-74
2023/03/02 12:42:39;;;;;;;;;;;;;;;17.67;32.10;97468.55;108537;1251;104925;-73
2023/03/02 12:45:33;;;;;;;;;;;;;;;17.71;32.18;97465.77;109009;1249;101293;-74
2023/03/02 12:48:03;;;;;;;;;;;;;;;17.72;32.44;97461.75;109004;1250;99967;-74
2023/03/02 12:50:37;;;;;;;;;;;;;;;17.82;32.46;97458.42;109001;1249;96960;-75